sensor_id;sensor_type;location;lat;lon;timestamp;temperature;humidity
26479;DHT22;14163;-26.142;27.992;2022-09-09T00:00:16;21.50;83.50
26479;DHT22;14163;-26.142;27.992;2022-09-09T00:02:55;21.50;83.70
26479;DHT22;14163;-26.142;27.992;2022-09-09T00:05:34;21.50;83.50
26479;DHT22;14163;-26.142;27.992;2022-09-09T00:08:15;21.50;83.90
26479;DHT22;14163;-26.142;27.992;2022-09-09T00:10:51;21.50;83.70
26479;DHT22;14163;-26.142;27.992;2022-09-09T00:13:27;21.50;83.70
26479;DHT22;14163;-26.142;27.992;2022-09-09T00:16:01;21.50;84.10
26479;DHT22;14163;-26.142;27.992;2022-09-09T00:18:50;21.50;84.60
26479;DHT22;14163;-26.142;27.992;2022-09-09T00:21:22;21.60;85.10
26479;DHT22;14163;-26.142;27.992;2022-09-09T00:23:55;21.60;85.40
26479;DHT22;14163;-26.142;27.992;2022-09-09T00:26:31;21.60;84.80
26479;DHT22;14163;-26.142;27.992;2022-09-09T00:29:10;21.60;85.00
26479;DHT22;14163;-26.142;27.992;2022-09-09T00:31:43;21.50;85.50
26479;DHT22;14163;-26.142;27.992;2022-09-09T00:34:18;21.50;85.70
26479;DHT22;14163;-26.142;27.992;2022-09-09T00:36:50;21.50;85.70
26479;DHT22;14163;-26.142;27.992;2022-09-09T00:39:27;21.40;86.30
26479;DHT22;14163;-26.142;27.992;2022-09-09T00:42:10;21.50;86.80
26479;DHT22;14163;-26.142;27.992;2022-09-09T00:44:55;21.50;87.10
26479;DHT22;14163;-26.142;27.992;2022-09-09T00:47:44;21.40;87.20
26479;DHT22;14163;-26.142;27.992;2022-09-09T00:50:35;21.50;87.50
26479;DHT22;14163;-26.142;27.992;2022-09-09T00:53:18;21.40;87.70
26479;DHT22;14163;-26.142;27.992;2022-09-09T00:55:52;21.40;88.00
26479;DHT22;14163;-26.142;27.992;2022-09-09T00:58:23;21.40;88.20
26479;DHT22;14163;-26.142;27.992;2022-09-09T01:00:59;21.30;88.40
26479;DHT22;14163;-26.142;27.992;2022-09-09T01:03:36;21.30;89.00
26479;DHT22;14163;-26.142;27.992;2022-09-09T01:06:21;21.30;89.30
26479;DHT22;14163;-26.142;27.992;2022-09-09T01:09:10;21.20;89.60
26479;DHT22;14163;-26.142;27.992;2022-09-09T01:11:52;21.20;89.70
26479;DHT22;14163;-26.142;27.992;2022-09-09T01:14:39;21.20;90.00
26479;DHT22;14163;-26.142;27.992;2022-09-09T01:17:14;21.20;90.10
26479;DHT22;14163;-26.142;27.992;2022-09-09T01:19:54;21.20;90.20
26479;DHT22;14163;-26.142;27.992;2022-09-09T01:22:34;21.20;90.40
26479;DHT22;14163;-26.142;27.992;2022-09-09T01:25:20;21.10;90.60
26479;DHT22;14163;-26.142;27.992;2022-09-09T01:27:56;21.10;90.70
26479;DHT22;14163;-26.142;27.992;2022-09-09T01:30:27;21.10;90.80
26479;DHT22;14163;-26.142;27.992;2022-09-09T01:32:58;21.00;90.50
26479;DHT22;14163;-26.142;27.992;2022-09-09T01:35:36;21.10;90.70
26479;DHT22;14163;-26.142;27.992;2022-09-09T01:38:07;21.00;90.50
26479;DHT22;14163;-26.142;27.992;2022-09-09T01:40:40;21.10;90.90
26479;DHT22;14163;-26.142;27.992;2022-09-09T01:43:11;21.20;91.10
26479;DHT22;14163;-26.142;27.992;2022-09-09T01:45:41;21.20;91.00
26479;DHT22;14163;-26.142;27.992;2022-09-09T01:48:12;21.20;91.10
26479;DHT22;14163;-26.142;27.992;2022-09-09T01:50:42;21.20;91.20
26479;DHT22;14163;-26.142;27.992;2022-09-09T01:53:12;21.20;91.30
26479;DHT22;14163;-26.142;27.992;2022-09-09T01:55:52;21.20;91.30
26479;DHT22;14163;-26.142;27.992;2022-09-09T01:58:34;21.20;91.30
26479;DHT22;14163;-26.142;27.992;2022-09-09T02:01:09;21.20;91.40
26479;DHT22;14163;-26.142;27.992;2022-09-09T02:03:47;21.20;91.40
26479;DHT22;14163;-26.142;27.992;2022-09-09T02:06:27;21.20;91.50
26479;DHT22;14163;-26.142;27.992;2022-09-09T02:08:59;21.20;91.60
26479;DHT22;14163;-26.142;27.992;2022-09-09T02:11:30;21.20;91.70
26479;DHT22;14163;-26.142;27.992;2022-09-09T02:14:06;21.10;91.70
26479;DHT22;14163;-26.142;27.992;2022-09-09T02:16:40;21.10;91.80
26479;DHT22;14163;-26.142;27.992;2022-09-09T02:19:14;21.00;92.00
26479;DHT22;14163;-26.142;27.992;2022-09-09T02:21:45;21.00;92.10
26479;DHT22;14163;-26.142;27.992;2022-09-09T02:24:16;21.00;92.20
26479;DHT22;14163;-26.142;27.992;2022-09-09T02:26:47;21.00;92.20
26479;DHT22;14163;-26.142;27.992;2022-09-09T02:29:22;21.00;92.20
26479;DHT22;14163;-26.142;27.992;2022-09-09T02:31:53;21.00;92.30
26479;DHT22;14163;-26.142;27.992;2022-09-09T02:34:27;21.00;91.40
26479;DHT22;14163;-26.142;27.992;2022-09-09T02:36:58;21.00;90.60
26479;DHT22;14163;-26.142;27.992;2022-09-09T02:39:29;21.00;91.00
26479;DHT22;14163;-26.142;27.992;2022-09-09T02:41:58;21.10;90.70
26479;DHT22;14163;-26.142;27.992;2022-09-09T02:44:29;21.20;90.40
26479;DHT22;14163;-26.142;27.992;2022-09-09T02:47:09;21.20;91.20
26479;DHT22;14163;-26.142;27.992;2022-09-09T02:49:49;21.20;91.60
26479;DHT22;14163;-26.142;27.992;2022-09-09T02:52:24;21.20;91.70
26479;DHT22;14163;-26.142;27.992;2022-09-09T02:54:58;21.20;91.70
26479;DHT22;14163;-26.142;27.992;2022-09-09T02:57:34;21.10;91.80
26479;DHT22;14163;-26.142;27.992;2022-09-09T03:00:06;21.00;92.00
26479;DHT22;14163;-26.142;27.992;2022-09-09T03:02:37;20.90;92.30
26479;DHT22;14163;-26.142;27.992;2022-09-09T03:05:09;20.80;92.40
26479;DHT22;14163;-26.142;27.992;2022-09-09T03:07:39;20.70;92.40
26479;DHT22;14163;-26.142;27.992;2022-09-09T03:10:09;20.70;92.80
26479;DHT22;14163;-26.142;27.992;2022-09-09T03:12:38;20.60;90.90
26479;DHT22;14163;-26.142;27.992;2022-09-09T03:15:10;20.70;92.20
26479;DHT22;14163;-26.142;27.992;2022-09-09T03:17:40;20.60;92.60
26479;DHT22;14163;-26.142;27.992;2022-09-09T03:20:10;20.70;92.90
26479;DHT22;14163;-26.142;27.992;2022-09-09T03:22:39;20.70;92.80
26479;DHT22;14163;-26.142;27.992;2022-09-09T03:25:09;20.60;92.50
26479;DHT22;14163;-26.142;27.992;2022-09-09T03:27:38;20.60;91.90
26479;DHT22;14163;-26.142;27.992;2022-09-09T03:30:10;20.60;92.30
26479;DHT22;14163;-26.142;27.992;2022-09-09T03:32:40;20.60;92.70
26479;DHT22;14163;-26.142;27.992;2022-09-09T03:35:09;20.60;92.80
26479;DHT22;14163;-26.142;27.992;2022-09-09T03:37:38;20.70;92.80
26479;DHT22;14163;-26.142;27.992;2022-09-09T03:40:09;20.60;92.90
26479;DHT22;14163;-26.142;27.992;2022-09-09T03:42:39;20.60;93.00
26479;DHT22;14163;-26.142;27.992;2022-09-09T03:45:10;20.50;93.10
26479;DHT22;14163;-26.142;27.992;2022-09-09T03:47:39;20.40;93.20
26479;DHT22;14163;-26.142;27.992;2022-09-09T03:50:10;20.30;93.40
26479;DHT22;14163;-26.142;27.992;2022-09-09T03:52:40;20.30;93.70
26479;DHT22;14163;-26.142;27.992;2022-09-09T03:55:10;20.30;93.80
26479;DHT22;14163;-26.142;27.992;2022-09-09T03:57:39;20.30;93.90
26479;DHT22;14163;-26.142;27.992;2022-09-09T04:00:12;20.30;93.90
26479;DHT22;14163;-26.142;27.992;2022-09-09T04:02:42;20.30;94.10
26479;DHT22;14163;-26.142;27.992;2022-09-09T04:05:12;20.30;94.00
26479;DHT22;14163;-26.142;27.992;2022-09-09T04:07:42;20.20;94.20
26479;DHT22;14163;-26.142;27.992;2022-09-09T04:10:11;20.10;94.40
26479;DHT22;14163;-26.142;27.992;2022-09-09T04:12:42;20.10;94.90
26479;DHT22;14163;-26.142;27.992;2022-09-09T04:15:15;20.10;94.70
26479;DHT22;14163;-26.142;27.992;2022-09-09T04:17:45;20.10;94.70
26479;DHT22;14163;-26.142;27.992;2022-09-09T04:20:14;20.00;95.10
26479;DHT22;14163;-26.142;27.992;2022-09-09T04:22:44;20.00;94.80
26479;DHT22;14163;-26.142;27.992;2022-09-09T04:25:14;20.00;94.60
26479;DHT22;14163;-26.142;27.992;2022-09-09T04:27:43;20.00;94.60
26479;DHT22;14163;-26.142;27.992;2022-09-09T04:30:15;20.00;94.80
26479;DHT22;14163;-26.142;27.992;2022-09-09T04:32:45;20.00;94.90
26479;DHT22;14163;-26.142;27.992;2022-09-09T04:35:14;20.00;95.20
26479;DHT22;14163;-26.142;27.992;2022-09-09T04:37:43;19.90;95.30
26479;DHT22;14163;-26.142;27.992;2022-09-09T04:40:13;20.00;95.50
26479;DHT22;14163;-26.142;27.992;2022-09-09T04:42:42;20.00;95.70
26479;DHT22;14163;-26.142;27.992;2022-09-09T04:45:13;20.00;95.90
26479;DHT22;14163;-26.142;27.992;2022-09-09T04:47:42;20.00;96.10
26479;DHT22;14163;-26.142;27.992;2022-09-09T04:50:12;19.90;96.30
26479;DHT22;14163;-26.142;27.992;2022-09-09T04:52:41;19.90;95.80
26479;DHT22;14163;-26.142;27.992;2022-09-09T04:55:11;19.90;96.20
26479;DHT22;14163;-26.142;27.992;2022-09-09T04:57:41;20.00;96.30
26479;DHT22;14163;-26.142;27.992;2022-09-09T05:00:11;20.00;96.70
26479;DHT22;14163;-26.142;27.992;2022-09-09T05:02:43;20.10;97.00
26479;DHT22;14163;-26.142;27.992;2022-09-09T05:05:12;20.10;97.10
26479;DHT22;14163;-26.142;27.992;2022-09-09T05:07:41;20.20;97.30
26479;DHT22;14163;-26.142;27.992;2022-09-09T05:10:10;20.20;96.60
26479;DHT22;14163;-26.142;27.992;2022-09-09T05:12:40;20.20;95.30
26479;DHT22;14163;-26.142;27.992;2022-09-09T05:15:10;20.20;95.40
26479;DHT22;14163;-26.142;27.992;2022-09-09T05:17:41;20.20;95.30
26479;DHT22;14163;-26.142;27.992;2022-09-09T05:20:10;20.30;96.20
26479;DHT22;14163;-26.142;27.992;2022-09-09T05:22:39;20.40;96.40
26479;DHT22;14163;-26.142;27.992;2022-09-09T05:25:09;20.40;96.70
26479;DHT22;14163;-26.142;27.992;2022-09-09T05:27:38;20.50;96.80
26479;DHT22;14163;-26.142;27.992;2022-09-09T05:30:08;20.60;96.50
26479;DHT22;14163;-26.142;27.992;2022-09-09T05:32:38;20.60;96.10
26479;DHT22;14163;-26.142;27.992;2022-09-09T05:35:09;20.70;95.90
26479;DHT22;14163;-26.142;27.992;2022-09-09T05:37:38;20.70;95.70
26479;DHT22;14163;-26.142;27.992;2022-09-09T05:40:07;20.80;94.50
26479;DHT22;14163;-26.142;27.992;2022-09-09T05:42:37;20.90;93.60
26479;DHT22;14163;-26.142;27.992;2022-09-09T05:45:08;20.90;92.60
26479;DHT22;14163;-26.142;27.992;2022-09-09T05:47:37;20.90;92.00
26479;DHT22;14163;-26.142;27.992;2022-09-09T05:50:09;21.00;91.90
26479;DHT22;14163;-26.142;27.992;2022-09-09T05:52:38;21.00;91.60
26479;DHT22;14163;-26.142;27.992;2022-09-09T05:55:08;21.00;92.00
26479;DHT22;14163;-26.142;27.992;2022-09-09T05:57:38;21.10;91.40
26479;DHT22;14163;-26.142;27.992;2022-09-09T06:00:08;21.10;90.90
26479;DHT22;14163;-26.142;27.992;2022-09-09T06:02:39;21.10;90.60
26479;DHT22;14163;-26.142;27.992;2022-09-09T06:05:10;21.10;91.10
26479;DHT22;14163;-26.142;27.992;2022-09-09T06:07:39;21.10;91.20
26479;DHT22;14163;-26.142;27.992;2022-09-09T06:10:10;21.30;91.60
26479;DHT22;14163;-26.142;27.992;2022-09-09T06:12:40;21.20;91.80
26479;DHT22;14163;-26.142;27.992;2022-09-09T06:15:10;21.20;92.20
26479;DHT22;14163;-26.142;27.992;2022-09-09T06:17:39;21.20;92.70
26479;DHT22;14163;-26.142;27.992;2022-09-09T06:20:10;21.30;92.90
26479;DHT22;14163;-26.142;27.992;2022-09-09T06:22:40;21.30;93.30
26479;DHT22;14163;-26.142;27.992;2022-09-09T06:25:10;21.40;93.20
26479;DHT22;14163;-26.142;27.992;2022-09-09T06:27:39;21.30;93.60
26479;DHT22;14163;-26.142;27.992;2022-09-09T06:30:10;21.40;93.80
26479;DHT22;14163;-26.142;27.992;2022-09-09T06:32:39;21.40;94.10
26479;DHT22;14163;-26.142;27.992;2022-09-09T06:35:11;21.40;94.00
26479;DHT22;14163;-26.142;27.992;2022-09-09T06:37:44;21.50;94.40
26479;DHT22;14163;-26.142;27.992;2022-09-09T06:40:15;21.60;94.30
26479;DHT22;14163;-26.142;27.992;2022-09-09T06:42:44;21.70;94.10
26479;DHT22;14163;-26.142;27.992;2022-09-09T06:45:14;21.70;94.30
26479;DHT22;14163;-26.142;27.992;2022-09-09T06:47:43;21.80;94.60
26479;DHT22;14163;-26.142;27.992;2022-09-09T06:50:14;21.90;94.70
26479;DHT22;14163;-26.142;27.992;2022-09-09T06:52:46;22.00;94.20
26479;DHT22;14163;-26.142;27.992;2022-09-09T06:55:16;22.00;93.70
26479;DHT22;14163;-26.142;27.992;2022-09-09T06:57:46;22.00;93.50
26479;DHT22;14163;-26.142;27.992;2022-09-09T07:00:15;22.10;93.50
26479;DHT22;14163;-26.142;27.992;2022-09-09T07:02:45;22.20;92.70
26479;DHT22;14163;-26.142;27.992;2022-09-09T07:05:16;22.20;91.70
26479;DHT22;14163;-26.142;27.992;2022-09-09T07:07:46;22.30;91.50
26479;DHT22;14163;-26.142;27.992;2022-09-09T07:10:15;22.30;90.90
26479;DHT22;14163;-26.142;27.992;2022-09-09T07:12:45;22.30;91.60
26479;DHT22;14163;-26.142;27.992;2022-09-09T07:15:18;22.40;91.50
26479;DHT22;14163;-26.142;27.992;2022-09-09T07:17:48;22.40;91.90
26479;DHT22;14163;-26.142;27.992;2022-09-09T07:20:19;22.50;91.80
26479;DHT22;14163;-26.142;27.992;2022-09-09T07:22:48;22.60;91.80
26479;DHT22;14163;-26.142;27.992;2022-09-09T07:25:17;22.60;91.10
26479;DHT22;14163;-26.142;27.992;2022-09-09T07:27:47;22.70;91.40
26479;DHT22;14163;-26.142;27.992;2022-09-09T07:30:17;22.60;91.30
26479;DHT22;14163;-26.142;27.992;2022-09-09T07:32:46;22.50;91.20
26479;DHT22;14163;-26.142;27.992;2022-09-09T07:35:17;22.50;91.20
26479;DHT22;14163;-26.142;27.992;2022-09-09T07:37:47;22.60;91.00
26479;DHT22;14163;-26.142;27.992;2022-09-09T07:40:16;22.70;90.80
26479;DHT22;14163;-26.142;27.992;2022-09-09T07:42:48;22.80;90.80
26479;DHT22;14163;-26.142;27.992;2022-09-09T07:45:17;23.10;90.00
26479;DHT22;14163;-26.142;27.992;2022-09-09T07:47:47;23.20;90.20
26479;DHT22;14163;-26.142;27.992;2022-09-09T07:50:18;23.20;90.30
26479;DHT22;14163;-26.142;27.992;2022-09-09T07:52:47;23.30;90.50
26479;DHT22;14163;-26.142;27.992;2022-09-09T07:55:17;23.30;90.30
26479;DHT22;14163;-26.142;27.992;2022-09-09T07:57:46;23.40;90.10
26479;DHT22;14163;-26.142;27.992;2022-09-09T08:00:16;23.50;90.40
26479;DHT22;14163;-26.142;27.992;2022-09-09T08:02:46;23.50;90.00
26479;DHT22;14163;-26.142;27.992;2022-09-09T08:05:17;23.60;90.20
26479;DHT22;14163;-26.142;27.992;2022-09-09T08:07:46;23.60;89.00
26479;DHT22;14163;-26.142;27.992;2022-09-09T08:10:15;23.50;88.50
26479;DHT22;14163;-26.142;27.992;2022-09-09T08:12:45;23.50;88.90
26479;DHT22;14163;-26.142;27.992;2022-09-09T08:15:14;23.70;89.70
26479;DHT22;14163;-26.142;27.992;2022-09-09T08:17:43;23.80;89.20
26479;DHT22;14163;-26.142;27.992;2022-09-09T08:20:13;23.90;88.70
26479;DHT22;14163;-26.142;27.992;2022-09-09T08:22:44;23.90;90.10
26479;DHT22;14163;-26.142;27.992;2022-09-09T08:25:13;23.80;90.30
26479;DHT22;14163;-26.142;27.992;2022-09-09T08:27:42;23.80;90.60
26479;DHT22;14163;-26.142;27.992;2022-09-09T08:30:12;23.80;91.00
26479;DHT22;14163;-26.142;27.992;2022-09-09T08:32:42;24.00;89.90
26479;DHT22;14163;-26.142;27.992;2022-09-09T08:35:11;24.10;90.10
26479;DHT22;14163;-26.142;27.992;2022-09-09T08:37:42;24.20;90.00
26479;DHT22;14163;-26.142;27.992;2022-09-09T08:40:21;24.30;90.20
26479;DHT22;14163;-26.142;27.992;2022-09-09T08:42:53;24.40;90.10
26479;DHT22;14163;-26.142;27.992;2022-09-09T08:45:31;24.40;90.30
26479;DHT22;14163;-26.142;27.992;2022-09-09T08:48:22;24.50;90.00
26479;DHT22;14163;-26.142;27.992;2022-09-09T08:50:57;24.50;90.20
26479;DHT22;14163;-26.142;27.992;2022-09-09T08:53:36;24.40;89.90
26479;DHT22;14163;-26.142;27.992;2022-09-09T08:56:11;24.50;90.10
26479;DHT22;14163;-26.142;27.992;2022-09-09T08:58:46;24.50;88.90
26479;DHT22;14163;-26.142;27.992;2022-09-09T09:01:30;24.50;88.50
26479;DHT22;14163;-26.142;27.992;2022-09-09T09:04:11;24.60;88.40
26479;DHT22;14163;-26.142;27.992;2022-09-09T09:06:50;24.50;87.10
26479;DHT22;14163;-26.142;27.992;2022-09-09T09:09:33;24.70;87.00
26479;DHT22;14163;-26.142;27.992;2022-09-09T09:12:13;24.90;85.50
26479;DHT22;14163;-26.142;27.992;2022-09-09T09:14:45;24.90;86.80
26479;DHT22;14163;-26.142;27.992;2022-09-09T09:17:16;25.00;85.30
26479;DHT22;14163;-26.142;27.992;2022-09-09T09:19:47;25.20;84.80
26479;DHT22;14163;-26.142;27.992;2022-09-09T09:22:19;25.10;84.20
26479;DHT22;14163;-26.142;27.992;2022-09-09T09:24:55;25.00;84.60
26479;DHT22;14163;-26.142;27.992;2022-09-09T09:27:32;25.10;82.60
26479;DHT22;14163;-26.142;27.992;2022-09-09T09:30:10;25.20;82.80
26479;DHT22;14163;-26.142;27.992;2022-09-09T09:32:48;25.20;83.70
26479;DHT22;14163;-26.142;27.992;2022-09-09T09:35:18;25.30;82.40
26479;DHT22;14163;-26.142;27.992;2022-09-09T09:37:48;25.30;82.40
26479;DHT22;14163;-26.142;27.992;2022-09-09T09:40:20;25.50;81.60
26479;DHT22;14163;-26.142;27.992;2022-09-09T09:42:52;25.70;80.70
26479;DHT22;14163;-26.142;27.992;2022-09-09T09:45:28;25.80;80.60
26479;DHT22;14163;-26.142;27.992;2022-09-09T09:48:03;26.00;80.40
26479;DHT22;14163;-26.142;27.992;2022-09-09T09:50:33;26.10;79.90
26479;DHT22;14163;-26.142;27.992;2022-09-09T09:53:04;26.20;74.90
26479;DHT22;14163;-26.142;27.992;2022-09-09T09:55:35;26.30;74.40
26479;DHT22;14163;-26.142;27.992;2022-09-09T09:58:06;26.50;73.80
26479;DHT22;14163;-26.142;27.992;2022-09-09T10:00:36;26.70;73.50
26479;DHT22;14163;-26.142;27.992;2022-09-09T10:03:24;26.80;70.30
26479;DHT22;14163;-26.142;27.992;2022-09-09T10:05:54;27.10;69.30
26479;DHT22;14163;-26.142;27.992;2022-09-09T10:08:25;27.20;67.10
26479;DHT22;14163;-26.142;27.992;2022-09-09T10:11:06;27.20;68.60
26479;DHT22;14163;-26.142;27.992;2022-09-09T10:13:49;27.30;65.60
26479;DHT22;14163;-26.142;27.992;2022-09-09T10:16:30;27.40;65.90
26479;DHT22;14163;-26.142;27.992;2022-09-09T10:19:03;27.50;66.40
26479;DHT22;14163;-26.142;27.992;2022-09-09T10:21:47;27.90;65.30
26479;DHT22;14163;-26.142;27.992;2022-09-09T10:24:34;28.60;63.60
26479;DHT22;14163;-26.142;27.992;2022-09-09T10:27:10;29.50;61.00
26479;DHT22;14163;-26.142;27.992;2022-09-09T10:29:53;30.30;59.10
26479;DHT22;14163;-26.142;27.992;2022-09-09T10:32:36;31.20;58.00
26479;DHT22;14163;-26.142;27.992;2022-09-09T10:35:12;32.10;57.00
26479;DHT22;14163;-26.142;27.992;2022-09-09T10:40:41;33.40;53.40
26479;DHT22;14163;-26.142;27.992;2022-09-09T10:43:23;33.70;52.60
26479;DHT22;14163;-26.142;27.992;2022-09-09T10:46:01;35.00;52.90
26479;DHT22;14163;-26.142;27.992;2022-09-09T10:48:54;36.40;51.40
26479;DHT22;14163;-26.142;27.992;2022-09-09T10:51:32;37.50;48.00
26479;DHT22;14163;-26.142;27.992;2022-09-09T10:54:13;37.90;47.10
26479;DHT22;14163;-26.142;27.992;2022-09-09T10:56:49;37.90;46.50
26479;DHT22;14163;-26.142;27.992;2022-09-09T10:59:26;37.10;47.00
26479;DHT22;14163;-26.142;27.992;2022-09-09T11:01:59;37.00;47.00
26479;DHT22;14163;-26.142;27.992;2022-09-09T11:04:38;37.20;46.90
26479;DHT22;14163;-26.142;27.992;2022-09-09T11:07:11;37.40;46.60
26479;DHT22;14163;-26.142;27.992;2022-09-09T11:09:44;37.80;45.10
26479;DHT22;14163;-26.142;27.992;2022-09-09T11:12:19;38.30;45.30
26479;DHT22;14163;-26.142;27.992;2022-09-09T11:14:53;38.90;43.30
26479;DHT22;14163;-26.142;27.992;2022-09-09T11:17:26;39.40;42.10
26479;DHT22;14163;-26.142;27.992;2022-09-09T11:19:55;39.90;42.90
26479;DHT22;14163;-26.142;27.992;2022-09-09T11:22:28;40.30;42.80
26479;DHT22;14163;-26.142;27.992;2022-09-09T11:25:03;40.50;42.60
26479;DHT22;14163;-26.142;27.992;2022-09-09T11:27:40;40.70;42.50
26479;DHT22;14163;-26.142;27.992;2022-09-09T11:30:18;40.80;41.70
26479;DHT22;14163;-26.142;27.992;2022-09-09T11:33:19;40.80;41.40
26479;DHT22;14163;-26.142;27.992;2022-09-09T11:36:05;40.70;41.60
26479;DHT22;14163;-26.142;27.992;2022-09-09T11:38:43;41.00;40.60
26479;DHT22;14163;-26.142;27.992;2022-09-09T11:41:15;41.40;40.00
26479;DHT22;14163;-26.142;27.992;2022-09-09T11:43:45;42.10;39.70
26479;DHT22;14163;-26.142;27.992;2022-09-09T11:46:18;42.70;37.30
26479;DHT22;14163;-26.142;27.992;2022-09-09T11:48:59;43.00;35.80
26479;DHT22;14163;-26.142;27.992;2022-09-09T11:51:29;43.80;35.70
26479;DHT22;14163;-26.142;27.992;2022-09-09T11:54:00;44.50;36.20
26479;DHT22;14163;-26.142;27.992;2022-09-09T11:56:31;45.00;34.90
26479;DHT22;14163;-26.142;27.992;2022-09-09T11:59:02;45.40;34.40
26479;DHT22;14163;-26.142;27.992;2022-09-09T12:01:38;45.70;33.70
26479;DHT22;14163;-26.142;27.992;2022-09-09T14:07:16;29.30;44.20
26479;DHT22;14163;-26.142;27.992;2022-09-09T14:09:46;29.20;44.90
26479;DHT22;14163;-26.142;27.992;2022-09-09T14:12:17;29.60;44.40
26479;DHT22;14163;-26.142;27.992;2022-09-09T14:14:46;30.10;44.10
26479;DHT22;14163;-26.142;27.992;2022-09-09T14:17:16;30.60;43.90
26479;DHT22;14163;-26.142;27.992;2022-09-09T14:19:45;30.90;43.30
26479;DHT22;14163;-26.142;27.992;2022-09-09T14:22:16;31.20;42.90
26479;DHT22;14163;-26.142;27.992;2022-09-09T14:24:46;31.40;42.10
26479;DHT22;14163;-26.142;27.992;2022-09-09T14:27:15;31.50;42.30
26479;DHT22;14163;-26.142;27.992;2022-09-09T14:29:45;31.50;42.60
26479;DHT22;14163;-26.142;27.992;2022-09-09T14:32:14;31.40;42.50
26479;DHT22;14163;-26.142;27.992;2022-09-09T14:34:44;31.30;42.60
26479;DHT22;14163;-26.142;27.992;2022-09-09T14:37:13;31.30;42.80
26479;DHT22;14163;-26.142;27.992;2022-09-09T14:39:44;31.40;42.70
26479;DHT22;14163;-26.142;27.992;2022-09-09T14:42:13;31.50;42.20
26479;DHT22;14163;-26.142;27.992;2022-09-09T14:44:43;31.50;42.40
26479;DHT22;14163;-26.142;27.992;2022-09-09T14:47:12;31.50;42.60
26479;DHT22;14163;-26.142;27.992;2022-09-09T14:49:41;31.40;42.40
26479;DHT22;14163;-26.142;27.992;2022-09-09T14:52:10;31.40;42.40
26479;DHT22;14163;-26.142;27.992;2022-09-09T14:54:39;31.30;42.20
26479;DHT22;14163;-26.142;27.992;2022-09-09T14:57:10;31.30;42.20
26479;DHT22;14163;-26.142;27.992;2022-09-09T14:59:39;31.20;42.30
26479;DHT22;14163;-26.142;27.992;2022-09-09T15:02:09;30.90;42.20
26479;DHT22;14163;-26.142;27.992;2022-09-09T15:04:40;30.80;42.60
26479;DHT22;14163;-26.142;27.992;2022-09-09T15:07:10;30.80;43.20
26479;DHT22;14163;-26.142;27.992;2022-09-09T15:09:43;30.90;43.10
26479;DHT22;14163;-26.142;27.992;2022-09-09T15:12:17;30.90;43.10
26479;DHT22;14163;-26.142;27.992;2022-09-09T15:14:48;30.80;43.10
26479;DHT22;14163;-26.142;27.992;2022-09-09T15:17:18;30.60;43.20
26479;DHT22;14163;-26.142;27.992;2022-09-09T15:19:59;30.50;43.10
26479;DHT22;14163;-26.142;27.992;2022-09-09T15:22:30;30.60;43.20
26479;DHT22;14163;-26.142;27.992;2022-09-09T15:25:00;30.50;43.50
26479;DHT22;14163;-26.142;27.992;2022-09-09T15:27:31;30.50;43.50
26479;DHT22;14163;-26.142;27.992;2022-09-09T15:30:01;30.40;43.50
26479;DHT22;14163;-26.142;27.992;2022-09-09T15:32:30;30.20;43.60
26479;DHT22;14163;-26.142;27.992;2022-09-09T15:35:01;30.30;43.90
26479;DHT22;14163;-26.142;27.992;2022-09-09T15:37:31;30.40;43.80
26479;DHT22;14163;-26.142;27.992;2022-09-09T15:40:00;30.30;43.80
26479;DHT22;14163;-26.142;27.992;2022-09-09T15:42:31;30.30;43.70
26479;DHT22;14163;-26.142;27.992;2022-09-09T15:45:00;30.40;43.90
26479;DHT22;14163;-26.142;27.992;2022-09-09T15:47:29;30.50;43.90
26479;DHT22;14163;-26.142;27.992;2022-09-09T15:49:59;30.40;44.20
26479;DHT22;14163;-26.142;27.992;2022-09-09T15:52:28;30.40;44.40
26479;DHT22;14163;-26.142;27.992;2022-09-09T15:54:57;30.40;44.70
26479;DHT22;14163;-26.142;27.992;2022-09-09T15:57:27;30.50;44.90
26479;DHT22;14163;-26.142;27.992;2022-09-09T15:59:58;30.40;45.00
26479;DHT22;14163;-26.142;27.992;2022-09-09T16:02:27;30.30;45.00
26479;DHT22;14163;-26.142;27.992;2022-09-09T16:04:56;30.20;45.80
26479;DHT22;14163;-26.142;27.992;2022-09-09T16:07:28;30.10;46.10
26479;DHT22;14163;-26.142;27.992;2022-09-09T16:09:57;30.10;46.30
26479;DHT22;14163;-26.142;27.992;2022-09-09T16:12:26;30.20;46.70
26479;DHT22;14163;-26.142;27.992;2022-09-09T16:14:57;30.20;46.40
26479;DHT22;14163;-26.142;27.992;2022-09-09T16:17:26;30.20;47.20
26479;DHT22;14163;-26.142;27.992;2022-09-09T16:19:55;30.20;47.90
26479;DHT22;14163;-26.142;27.992;2022-09-09T16:22:24;30.20;48.20
26479;DHT22;14163;-26.142;27.992;2022-09-09T16:24:54;30.20;48.40
26479;DHT22;14163;-26.142;27.992;2022-09-09T16:27:23;30.10;48.10
26479;DHT22;14163;-26.142;27.992;2022-09-09T16:29:52;30.10;48.90
26479;DHT22;14163;-26.142;27.992;2022-09-09T16:32:23;30.00;49.10
26479;DHT22;14163;-26.142;27.992;2022-09-09T16:34:52;29.90;49.20
26479;DHT22;14163;-26.142;27.992;2022-09-09T16:37:22;29.90;49.40
26479;DHT22;14163;-26.142;27.992;2022-09-09T16:39:51;29.80;49.50
26479;DHT22;14163;-26.142;27.992;2022-09-09T16:42:21;29.70;47.80
26479;DHT22;14163;-26.142;27.992;2022-09-09T16:44:50;29.70;47.40
26479;DHT22;14163;-26.142;27.992;2022-09-09T16:47:19;29.60;46.90
26479;DHT22;14163;-26.142;27.992;2022-09-09T16:49:50;29.60;47.20
26479;DHT22;14163;-26.142;27.992;2022-09-09T16:52:19;29.50;47.30
26479;DHT22;14163;-26.142;27.992;2022-09-09T16:54:49;29.50;48.40
26479;DHT22;14163;-26.142;27.992;2022-09-09T16:57:18;29.50;47.80
26479;DHT22;14163;-26.142;27.992;2022-09-09T16:59:47;29.40;48.10
26479;DHT22;14163;-26.142;27.992;2022-09-09T17:02:17;29.40;48.40
26479;DHT22;14163;-26.142;27.992;2022-09-09T17:04:46;29.40;47.60
26479;DHT22;14163;-26.142;27.992;2022-09-09T17:07:17;29.30;47.80
26479;DHT22;14163;-26.142;27.992;2022-09-09T17:09:47;29.20;48.00
26479;DHT22;14163;-26.142;27.992;2022-09-09T17:12:16;29.20;48.20
26479;DHT22;14163;-26.142;27.992;2022-09-09T17:14:46;29.10;47.80
26479;DHT22;14163;-26.142;27.992;2022-09-09T17:17:16;29.10;48.30
26479;DHT22;14163;-26.142;27.992;2022-09-09T17:19:45;29.00;48.50
26479;DHT22;14163;-26.142;27.992;2022-09-09T17:22:18;29.00;48.60
26479;DHT22;14163;-26.142;27.992;2022-09-09T17:24:48;29.00;49.10
26479;DHT22;14163;-26.142;27.992;2022-09-09T17:27:17;28.90;50.20
26479;DHT22;14163;-26.142;27.992;2022-09-09T17:29:47;28.90;49.10
26479;DHT22;14163;-26.142;27.992;2022-09-09T17:32:16;28.90;50.30
26479;DHT22;14163;-26.142;27.992;2022-09-09T17:34:45;28.80;50.40
26479;DHT22;14163;-26.142;27.992;2022-09-09T17:37:14;28.80;50.70
26479;DHT22;14163;-26.142;27.992;2022-09-09T17:39:45;28.70;50.30